Time;durP1;ratioP1;P1;durP2;ratioP2;P2;SDS_P1;SDS_P2;PMS_P1;PMS_P2;Temp;Humidity;BMP_temperature;BMP_pressure;BME280_temperature;BME280_humidity;BME280_pressure;Samples;Min_cycle;Max_cycle;Signal;HPM_P1;HPM_P2
2023/05/01 00:00:03;;;;;;;34.45;31.50;;;8.50;99.90;;;;;;5127765;28;20023;-74
2023/05/01 00:02:35;;;;;;;36.33;33.25;;;8.80;99.90;;;;;;5126572;29;20035;-74
2023/05/01 00:05:06;;;;;;;35.03;31.95;;;8.60;99.90;;;;;;5127864;28;20103;-75
2023/05/01 00:07:37;;;;;;;33.63;30.83;;;8.50;99.90;;;;;;5142326;28;20031;-75
2023/05/01 00:10:08;;;;;;;40.55;37.10;;;8.70;99.90;;;;;;5127885;28;20098;-75
2023/05/01 00:12:39;;;;;;;37.92;34.47;;;8.90;99.90;;;;;;5127698;28;20475;-75
2023/05/01 00:15:10;;;;;;;57.13;51.33;;;9.00;99.90;;;;;;5127746;29;20027;-75
2023/05/01 00:17:41;;;;;;;34.55;31.63;;;9.00;99.90;;;;;;5127766;28;20498;-75
2023/05/01 00:20:12;;;;;;;36.03;32.95;;;8.40;99.90;;;;;;5127659;29;20023;-74
2023/05/01 00:22:43;;;;;;;35.65;32.55;;;8.50;99.90;;;;;;5127620;28;20030;-75
2023/05/01 00:25:14;;;;;;;37.88;34.80;;;8.60;99.90;;;;;;5127450;29;20024;-75
2023/05/01 00:27:45;;;;;;;36.17;33.03;;;8.90;99.90;;;;;;5127273;28;20030;-75
2023/05/01 00:30:16;;;;;;;35.60;32.58;;;8.80;99.90;;;;;;5127442;28;20027;-74
2023/05/01 00:32:47;;;;;;;38.40;35.00;;;8.40;99.90;;;;;;5126120;29;20038;-74
2023/05/01 00:35:18;;;;;;;37.13;33.90;;;8.20;99.90;;;;;;5127374;28;20129;-74
2023/05/01 00:37:48;;;;;;;37.50;34.30;;;8.50;99.90;;;;;;5126894;29;20047;-75
2023/05/01 00:40:19;;;;;;;38.00;34.55;;;8.60;99.90;;;;;;5127344;28;20041;-75
2023/05/01 00:42:50;;;;;;;42.15;38.30;;;8.50;99.90;;;;;;5126984;28;20031;-74
2023/05/01 00:45:21;;;;;;;39.83;36.22;;;8.40;99.90;;;;;;5127194;28;20027;-75
2023/05/01 00:47:52;;;;;;;45.42;41.20;;;8.30;99.90;;;;;;5126984;28;20031;-75
2023/05/01 00:50:23;;;;;;;46.10;41.97;;;8.60;99.90;;;;;;5126902;28;20023;-75
2023/05/01 00:52:55;;;;;;;40.58;37.00;;;8.80;99.90;;;;;;5125581;29;20030;-75
2023/05/01 00:55:26;;;;;;;37.78;34.67;;;8.40;99.90;;;;;;5126532;28;20460;-75
2023/05/01 00:57:58;;;;;;;39.25;35.92;;;8.30;99.90;;;;;;5126513;28;20505;-75
2023/05/01 01:00:28;;;;;;;39.15;35.65;;;8.50;99.90;;;;;;5126688;28;20403;-74
2023/05/01 01:02:59;;;;;;;41.22;37.83;;;8.70;99.90;;;;;;5126784;28;20030;-75
2023/05/01 01:05:34;;;;;;;39.35;35.78;;;8.60;99.90;;;;;;5126620;28;20542;-75
2023/05/01 01:08:21;;;;;;;40.30;36.83;;;8.40;99.90;;;;;;5126414;28;20387;-75
2023/05/01 01:11:08;;;;;;;40.42;36.65;;;8.40;99.90;;;;;;5126615;28;20125;-74
2023/05/01 01:13:48;;;;;;;43.33;39.33;;;8.40;99.90;;;;;;5126363;28;20180;-75
2023/05/01 01:16:40;;;;;;;44.80;41.00;;;8.70;99.90;;;;;;5126213;28;20019;-75
2023/05/01 01:19:40;;;;;;;40.53;36.85;;;8.30;99.90;;;;;;5126387;28;20062;-74
2023/05/01 01:22:16;;;;;;;43.97;40.28;;;8.50;99.90;;;;;;5125160;29;20027;-75
2023/05/01 01:25:35;;;;;;;41.17;37.45;;;8.70;99.90;;;;;;5126413;28;20058;-75
2023/05/01 01:28:24;;;;;;;41.38;37.60;;;8.80;99.90;;;;;;5091037;28;20042;-74
2023/05/01 01:31:04;;;;;;;43.22;39.40;;;8.80;99.90;;;;;;5124897;29;20491;-75
2023/05/01 01:34:01;;;;;;;39.47;35.97;;;8.70;99.90;;;;;;5126125;28;20019;-74
2023/05/01 01:36:39;;;;;;;41.95;38.30;;;8.60;99.90;;;;;;5126224;28;20118;-74
2023/05/01 01:39:34;;;;;;;44.35;40.22;;;8.30;99.90;;;;;;5125844;28;20047;-74
2023/05/01 01:42:11;;;;;;;41.97;38.50;;;8.50;99.90;;;;;;5126063;29;20407;-75
2023/05/01 01:44:49;;;;;;;43.50;39.75;;;8.70;99.90;;;;;;5125974;28;20035;-75
2023/05/01 01:47:30;;;;;;;43.72;40.00;;;8.60;99.90;;;;;;5126177;28;20027;-75
2023/05/01 01:50:05;;;;;;;42.08;38.50;;;8.60;99.90;;;;;;5125885;28;20028;-75
2023/05/01 01:52:39;;;;;;;46.22;42.28;;;8.40;99.90;;;;;;5124722;29;20472;-75
2023/05/01 01:55:15;;;;;;;44.33;40.58;;;8.50;99.90;;;;;;5125971;28;20027;-75
2023/05/01 01:57:50;;;;;;;41.72;38.00;;;8.70;99.90;;;;;;5125737;28;20067;-76
2023/05/01 02:00:22;;;;;;;39.60;36.20;;;8.60;99.90;;;;;;5125730;28;20020;-75
2023/05/01 02:02:54;;;;;;;42.72;38.85;;;8.60;99.90;;;;;;5125325;29;20094;-75
2023/05/01 02:05:26;;;;;;;42.38;38.53;;;8.60;99.90;;;;;;5125431;28;20015;-74
2023/05/01 02:07:58;;;;;;;41.15;37.72;;;8.30;99.90;;;;;;5124434;28;20094;-75
2023/05/01 02:10:29;;;;;;;38.88;35.58;;;8.40;99.90;;;;;;5125572;28;20372;-75
2023/05/01 02:13:02;;;;;;;38.80;35.30;;;8.70;99.90;;;;;;5125570;29;20574;-75
2023/05/01 02:15:33;;;;;;;38.33;34.97;;;8.60;99.90;;;;;;5125430;28;20023;-75
2023/05/01 02:18:05;;;;;;;42.20;38.38;;;8.40;99.90;;;;;;5125554;28;20114;-75
2023/05/01 02:20:37;;;;;;;43.22;39.55;;;8.20;99.90;;;;;;5125484;28;20027;-74
2023/05/01 02:23:08;;;;;;;41.63;37.90;;;8.10;99.90;;;;;;5125511;28;20034;-74
2023/05/01 02:25:41;;;;;;;41.13;37.60;;;8.30;99.90;;;;;;5125366;28;20030;-75
2023/05/01 02:28:13;;;;;;;41.63;38.13;;;8.10;99.90;;;;;;5125559;28;20104;-74
2023/05/01 02:30:45;;;;;;;41.95;38.55;;;8.10;99.90;;;;;;5125524;28;20479;-74
2023/05/01 02:33:16;;;;;;;46.58;42.55;;;8.00;99.90;;;;;;5119145;28;20043;-75
2023/05/01 02:35:48;;;;;;;41.17;37.80;;;7.80;99.90;;;;;;5118107;29;20046;-74
2023/05/01 02:38:19;;;;;;;43.88;40.10;;;8.00;99.90;;;;;;5123405;28;20047;-74
2023/05/01 02:40:55;;;;;;;42.88;39.28;;;7.90;99.90;;;;;;5105717;29;20032;-74
2023/05/01 02:43:27;;;;;;;47.63;43.63;;;7.80;99.90;;;;;;5105753;29;20031;-75
2023/05/01 02:46:00;;;;;;;43.80;40.03;;;7.70;99.90;;;;;;5105861;29;20028;-74
2023/05/01 02:48:32;;;;;;;41.95;38.35;;;8.00;99.90;;;;;;5105686;29;20024;-74
2023/05/01 02:51:05;;;;;;;43.88;39.90;;;7.70;99.90;;;;;;5111409;29;20031;-75
2023/05/01 02:53:38;;;;;;;45.92;42.10;;;7.90;99.90;;;;;;5125297;28;20016;-74
2023/05/01 02:56:09;;;;;;;44.53;40.90;;;7.80;99.90;;;;;;5124011;29;20633;-75
2023/05/01 02:58:40;;;;;;;43.80;40.03;;;7.80;99.90;;;;;;5123812;29;20125;-74
2023/05/01 03:01:11;;;;;;;45.33;41.60;;;7.70;99.90;;;;;;5124865;28;20135;-74
2023/05/01 03:03:42;;;;;;;48.63;44.25;;;7.70;99.90;;;;;;5124061;29;20106;-75
2023/05/01 03:06:13;;;;;;;45.22;41.30;;;7.80;99.90;;;;;;5125164;29;20062;-75
2023/05/01 03:08:44;;;;;;;45.63;41.92;;;7.60;99.90;;;;;;5124820;29;20027;-75
2023/05/01 03:11:15;;;;;;;45.00;41.45;;;7.80;99.90;;;;;;5125368;28;20042;-74
2023/05/01 03:13:46;;;;;;;47.47;43.75;;;7.80;99.90;;;;;;5123754;29;20082;-74
2023/05/01 03:16:17;;;;;;;44.67;40.97;;;7.80;99.90;;;;;;5124989;28;20067;-75
2023/05/01 03:18:48;;;;;;;45.50;41.90;;;7.60;99.90;;;;;;5125541;28;20488;-75
2023/05/01 03:21:19;;;;;;;46.03;42.30;;;7.70;99.90;;;;;;5128875;28;20450;-74
2023/05/01 03:23:50;;;;;;;46.35;42.53;;;7.70;99.90;;;;;;5128676;28;20110;-74
2023/05/01 03:26:21;;;;;;;48.67;44.78;;;7.40;99.90;;;;;;5128524;28;20106;-74
2023/05/01 03:28:52;;;;;;;47.42;43.67;;;7.40;99.90;;;;;;5128410;28;20027;-74
2023/05/01 03:31:22;;;;;;;50.42;46.25;;;7.50;99.90;;;;;;5128440;28;20027;-74
2023/05/01 03:33:53;;;;;;;50.97;46.78;;;7.50;99.90;;;;;;5128347;29;20062;-75
2023/05/01 03:36:24;;;;;;;49.42;45.40;;;7.40;99.90;;;;;;5128235;29;20036;-74
2023/05/01 03:38:55;;;;;;;50.97;46.95;;;7.60;99.90;;;;;;5128181;29;20051;-74
2023/05/01 03:41:26;;;;;;;49.75;45.85;;;7.70;99.90;;;;;;5128175;28;20031;-74
2023/05/01 03:43:57;;;;;;;49.17;45.28;;;7.60;99.90;;;;;;5128114;29;20032;-74
2023/05/01 03:46:28;;;;;;;48.92;44.83;;;7.50;99.90;;;;;;5128155;28;20031;-74
2023/05/01 03:48:59;;;;;;;48.60;44.78;;;7.40;99.90;;;;;;5128130;28;20383;-74
2023/05/01 03:51:29;;;;;;;48.67;44.60;;;7.80;99.90;;;;;;5128014;28;20036;-74
2023/05/01 03:54:01;;;;;;;49.00;45.08;;;7.70;99.90;;;;;;5127892;28;20493;-75
2023/05/01 03:56:34;;;;;;;46.90;43.08;;;7.80;99.90;;;;;;5128105;28;20030;-75
2023/05/01 03:59:05;;;;;;;50.72;46.33;;;8.10;99.90;;;;;;5126602;29;20031;-74
2023/05/01 04:01:36;;;;;;;49.95;45.75;;;7.90;99.90;;;;;;5126430;29;20412;-74
2023/05/01 04:04:07;;;;;;;52.22;47.75;;;8.10;99.90;;;;;;5127881;28;20551;-74
2023/05/01 04:06:37;;;;;;;51.67;47.25;;;8.20;99.90;;;;;;5126464;29;20031;-75
2023/05/01 04:09:08;;;;;;;67.50;60.80;;;8.50;99.90;;;;;;5126577;29;20054;-75
2023/05/01 04:11:39;;;;;;;69.13;62.15;;;8.30;99.90;;;;;;5126353;29;20035;-74
2023/05/01 04:14:10;;;;;;;75.57;67.93;;;8.30;99.90;;;;;;5126421;29;20440;-74
2023/05/01 04:16:41;;;;;;;71.63;64.43;;;8.20;99.90;;;;;;5127334;28;20027;-74
2023/05/01 04:19:12;;;;;;;65.68;59.00;;;8.50;99.90;;;;;;5127332;29;20360;-74
2023/05/01 04:21:44;;;;;;;69.88;62.75;;;8.80;99.90;;;;;;5127530;29;20110;-75
2023/05/01 04:24:15;;;;;;;69.10;62.08;;;8.80;99.90;;;;;;5127602;29;20102;-74
2023/05/01 04:26:46;;;;;;;79.03;70.97;;;9.00;99.90;;;;;;5127387;28;20086;-74
2023/05/01 04:29:17;;;;;;;78.60;70.30;;;8.90;99.90;;;;;;5127248;28;20023;-74
2023/05/01 04:31:48;;;;;;;71.28;64.30;;;8.90;99.90;;;;;;5126589;28;20475;-74
2023/05/01 04:34:18;;;;;;;63.65;57.53;;;9.20;99.90;;;;;;5126868;28;20515;-75
2023/05/01 04:36:50;;;;;;;57.40;51.47;;;9.40;99.90;;;;;;5126772;28;20043;-75
2023/05/01 04:39:21;;;;;;;55.83;50.20;;;9.70;99.90;;;;;;5127295;28;20353;-74
2023/05/01 04:41:52;;;;;;;53.15;48.05;;;9.30;99.90;;;;;;5127276;28;20037;-74
2023/05/01 04:44:24;;;;;;;54.60;49.38;;;9.70;99.90;;;;;;5127127;28;20027;-74
2023/05/01 04:46:54;;;;;;;55.47;50.38;;;9.60;99.90;;;;;;5125649;29;20027;-74
2023/05/01 04:49:25;;;;;;;55.22;50.13;;;9.30;99.90;;;;;;5126659;28;20037;-74
2023/05/01 04:51:56;;;;;;;55.58;50.55;;;9.90;99.90;;;;;;5126846;28;20081;-74
2023/05/01 04:54:27;;;;;;;53.10;48.17;;;9.70;99.90;;;;;;5126919;28;20019;-75
2023/05/01 04:56:58;;;;;;;53.88;48.92;;;9.60;99.90;;;;;;5105355;29;20385;-74
2023/05/01 04:59:29;;;;;;;51.17;46.70;;;9.90;99.90;;;;;;5086694;29;20028;-75
2023/05/01 05:02:00;;;;;;;51.15;46.53;;;9.80;99.90;;;;;;5087200;29;20357;-75
2023/05/01 05:04:32;;;;;;;50.03;45.50;;;10.10;99.90;;;;;;5095701;29;20592;-75
2023/05/01 05:07:03;;;;;;;48.95;44.28;;;10.20;99.90;;;;;;5106629;29;20035;-75
2023/05/01 05:09:34;;;;;;;51.20;46.55;;;10.40;99.90;;;;;;5106412;29;20514;-75
2023/05/01 05:12:05;;;;;;;50.42;45.92;;;10.50;99.90;;;;;;5087144;29;20473;-74
2023/05/01 05:14:36;;;;;;;51.17;46.72;;;10.50;99.90;;;;;;5101764;29;20028;-75
2023/05/01 05:17:07;;;;;;;50.53;46.40;;;10.80;99.90;;;;;;5086759;29;20079;-75
2023/05/01 05:19:38;;;;;;;56.63;51.65;;;11.10;99.90;;;;;;5101848;29;20047;-75
2023/05/01 05:22:11;;;;;;;55.75;50.85;;;11.50;99.90;;;;;;5102480;29;20562;-75
2023/05/01 05:24:42;;;;;;;55.08;50.42;;;11.80;99.90;;;;;;5098838;29;20032;-75
2023/05/01 05:27:12;;;;;;;56.17;51.22;;;12.00;99.90;;;;;;5099110;29;20039;-76
2023/05/01 05:29:43;;;;;;;55.75;50.85;;;12.40;99.90;;;;;;5099254;29;20406;-76
2023/05/01 05:32:14;;;;;;;56.47;51.72;;;12.60;99.90;;;;;;5106111;29;20036;-75
2023/05/01 05:34:46;;;;;;;56.03;51.42;;;12.80;99.90;;;;;;5105920;29;20031;-76
2023/05/01 05:37:17;;;;;;;56.67;52.15;;;12.80;99.90;;;;;;5102194;29;20484;-73
2023/05/01 05:39:47;;;;;;;54.30;50.00;;;13.10;99.90;;;;;;5096565;29;20032;-75
2023/05/01 05:42:19;;;;;;;53.47;49.08;;;13.10;99.90;;;;;;5094934;29;20027;-75
2023/05/01 05:44:50;;;;;;;57.47;53.03;;;13.30;99.90;;;;;;5095953;29;20465;-76
2023/05/01 05:47:21;;;;;;;50.25;46.10;;;13.50;99.90;;;;;;5090963;29;20436;-75
2023/05/01 05:49:54;;;;;;;47.72;43.75;;;13.90;99.90;;;;;;5094917;29;20059;-75
2023/05/01 05:52:24;;;;;;;46.50;42.72;;;13.80;99.90;;;;;;5092887;29;20020;-76
2023/05/01 05:54:55;;;;;;;45.47;41.88;;;14.20;99.90;;;;;;5094170;29;20039;-76
2023/05/01 05:57:26;;;;;;;38.92;35.63;;;14.30;99.90;;;;;;5093436;29;20044;-76
2023/05/01 05:59:57;;;;;;;39.90;36.70;;;14.50;99.90;;;;;;5111439;29;20020;-76
2023/05/01 06:02:28;;;;;;;41.90;38.38;;;14.90;99.90;;;;;;5105700;29;20030;-75
2023/05/01 06:04:59;;;;;;;44.47;40.58;;;14.70;99.90;;;;;;5106344;29;20020;-76
2023/05/01 06:07:29;;;;;;;38.97;35.55;;;15.10;99.90;;;;;;5104584;29;20040;-74
2023/05/01 06:10:03;;;;;;;32.60;30.00;;;15.20;99.90;;;;;;5105956;29;20433;-77
2023/05/01 06:12:33;;;;;;;30.38;27.98;;;15.40;99.90;;;;;;5106152;29;20400;-77
2023/05/01 06:15:05;;;;;;;34.63;31.63;;;15.60;99.90;;;;;;5105969;29;20084;-77
2023/05/01 06:17:36;;;;;;;31.50;28.85;;;15.90;99.90;;;;;;5120791;29;20411;-77
2023/05/01 06:20:08;;;;;;;30.88;28.55;;;15.80;99.90;;;;;;5104641;29;20444;-76
2023/05/01 06:22:39;;;;;;;33.97;31.20;;;16.10;99.90;;;;;;5106031;29;20032;-76
2023/05/01 06:25:10;;;;;;;30.15;27.92;;;16.00;99.90;;;;;;5105678;29;20031;-76
2023/05/01 06:27:41;;;;;;;30.15;27.85;;;16.20;99.90;;;;;;5105828;29;20032;-76
2023/05/01 06:30:12;;;;;;;29.85;27.65;;;16.40;99.90;;;;;;5105646;29;20078;-77
2023/05/01 06:32:43;;;;;;;28.52;26.50;;;16.60;99.90;;;;;;5105967;29;20031;-76
2023/05/01 06:35:14;;;;;;;26.27;24.45;;;16.70;99.90;;;;;;5105978;29;20050;-78
2023/05/01 06:37:45;;;;;;;26.52;24.60;;;16.60;99.90;;;;;;5104257;29;20571;-76
2023/05/01 06:40:16;;;;;;;28.27;26.38;;;16.50;99.90;;;;;;5106011;29;20039;-79
2023/05/01 06:42:47;;;;;;;28.17;26.17;;;16.90;99.90;;;;;;5105798;29;20035;-76
2023/05/01 06:45:18;;;;;;;23.92;22.23;;;17.40;99.90;;;;;;5104635;29;20036;-76
2023/05/01 06:47:49;;;;;;;24.95;23.23;;;17.20;99.90;;;;;;5120645;29;20079;-76
2023/05/01 06:50:20;;;;;;;25.45;23.45;;;17.30;99.90;;;;;;5105752;29;20024;-75
2023/05/01 06:52:51;;;;;;;26.75;24.35;;;18.00;99.90;;;;;;5104471;29;20024;-75
2023/05/01 06:55:22;;;;;;;26.77;24.52;;;17.50;99.90;;;;;;5108440;29;20034;-76
2023/05/01 06:57:53;;;;;;;24.83;22.65;;;17.70;99.90;;;;;;5109333;29;20040;-77
2023/05/01 07:00:24;;;;;;;26.73;24.48;;;17.90;99.90;;;;;;5109247;29;20027;-82
2023/05/01 07:02:55;;;;;;;25.70;23.60;;;17.90;99.90;;;;;;5123951;28;20020;-78
2023/05/01 07:05:26;;;;;;;22.70;20.90;;;18.10;99.90;;;;;;5109208;29;20483;-79
2023/05/01 07:07:57;;;;;;;23.13;21.63;;;18.20;99.90;;;;;;5109255;29;20490;-78
2023/05/01 07:10:29;;;;;;;24.17;22.38;;;18.10;99.90;;;;;;5109609;29;20032;-77
2023/05/01 07:13:00;;;;;;;23.15;21.52;;;18.30;99.90;;;;;;5109484;29;20024;-77
2023/05/01 07:15:33;;;;;;;22.48;20.83;;;18.40;99.90;;;;;;5107674;29;20451;-80
2023/05/01 07:18:06;;;;;;;22.63;20.98;;;18.50;99.90;;;;;;5123745;29;20139;-79
2023/05/01 07:20:37;;;;;;;23.58;22.02;;;18.40;99.90;;;;;;5108003;29;20023;-77
2023/05/01 07:23:08;;;;;;;24.38;22.58;;;18.40;99.90;;;;;;5109355;29;20038;-79
2023/05/01 07:25:43;;;;;;;23.70;22.10;;;18.60;99.90;;;;;;5109382;29;20037;-79
2023/05/01 07:28:16;;;;;;;24.83;22.80;;;18.50;99.90;;;;;;5109301;29;20383;-79
2023/05/01 07:30:47;;;;;;;22.98;21.27;;;18.50;99.90;;;;;;5108996;29;20027;-79
2023/05/01 07:33:18;;;;;;;23.80;22.10;;;18.60;99.90;;;;;;5109372;29;20416;-79
2023/05/01 07:35:49;;;;;;;22.45;20.75;;;18.80;99.90;;;;;;5108947;29;20035;-79
2023/05/01 07:38:20;;;;;;;23.65;21.88;;;19.00;99.90;;;;;;5108737;29;20503;-76
2023/05/01 07:40:55;;;;;;;23.15;21.75;;;19.00;99.90;;;;;;5109091;29;20091;-76
2023/05/01 07:43:26;;;;;;;22.80;21.15;;;19.00;99.90;;;;;;5107578;29;20028;-76
2023/05/01 07:45:59;;;;;;;22.35;20.92;;;19.10;99.90;;;;;;5108872;29;20076;-79
2023/05/01 07:48:31;;;;;;;21.88;20.27;;;19.20;99.90;;;;;;5108837;29;20032;-78
2023/05/01 07:51:03;;;;;;;21.08;19.48;;;19.00;99.90;;;;;;5107355;29;20070;-79
2023/05/01 07:53:34;;;;;;;22.33;20.60;;;19.20;99.90;;;;;;5108857;29;20024;-78
2023/05/01 07:56:09;;;;;;;23.42;21.83;;;19.20;99.90;;;;;;5118021;29;20392;-78
2023/05/01 07:58:41;;;;;;;23.75;21.75;;;19.40;99.90;;;;;;5108602;29;20039;-76
2023/05/01 08:01:12;;;;;;;21.08;19.65;;;19.40;99.90;;;;;;5108679;29;20059;-77
2023/05/01 08:03:43;;;;;;;23.17;21.58;;;19.50;99.90;;;;;;5123284;29;20070;-76
2023/05/01 08:06:14;;;;;;;21.42;20.00;;;19.50;99.90;;;;;;5107749;29;20460;-76
2023/05/01 08:08:44;;;;;;;22.77;21.17;;;19.30;99.90;;;;;;5108481;29;20026;-78
2023/05/01 08:11:15;;;;;;;23.13;21.52;;;19.40;99.90;;;;;;5106948;29;20032;-76
2023/05/01 08:13:46;;;;;;;21.20;19.70;;;19.50;99.90;;;;;;5107155;29;20019;-76
2023/05/01 08:16:18;;;;;;;22.75;21.10;;;19.50;99.90;;;;;;5108355;29;20059;-77
2023/05/01 08:18:49;;;;;;;22.13;20.80;;;19.40;99.90;;;;;;5108161;29;20042;-76
2023/05/01 08:21:20;;;;;;;22.00;20.60;;;19.50;99.90;;;;;;5108159;29;20020;-75
2023/05/01 08:23:54;;;;;;;21.58;20.25;;;19.60;99.90;;;;;;5095346;29;20032;-76
2023/05/01 08:26:24;;;;;;;21.58;20.08;;;19.60;99.90;;;;;;5087233;29;20035;-77
2023/05/01 08:28:55;;;;;;;21.67;20.17;;;19.60;99.90;;;;;;5086841;29;20024;-77
2023/05/01 08:31:26;;;;;;;22.38;20.60;;;19.50;99.90;;;;;;5088182;29;20063;-77
2023/05/01 08:33:57;;;;;;;20.55;19.25;;;19.80;99.90;;;;;;5088327;29;20072;-77
2023/05/01 08:36:30;;;;;;;19.73;18.30;;;19.80;99.90;;;;;;5102494;29;20349;-78
2023/05/01 08:39:02;;;;;;;18.98;17.77;;;19.70;99.90;;;;;;5106104;29;20158;-76
2023/05/01 08:41:34;;;;;;;19.73;18.42;;;19.90;99.90;;;;;;5107531;29;20047;-75
2023/05/01 08:44:07;;;;;;;22.58;21.13;;;19.60;99.90;;;;;;5123962;28;20361;-79
2023/05/01 08:47:09;;;;;;;20.77;19.17;;;19.70;99.90;;;;;;5125862;29;20117;-77
2023/05/01 08:49:41;;;;;;;21.35;19.85;;;19.40;99.90;;;;;;5126777;28;20376;-76
2023/05/01 08:52:14;;;;;;;21.55;20.10;;;19.70;99.90;;;;;;5126777;28;20430;-77
2023/05/01 08:54:47;;;;;;;24.05;22.42;;;20.00;99.90;;;;;;5125527;29;20040;-78
2023/05/01 08:57:19;;;;;;;23.02;21.42;;;19.10;99.90;;;;;;5126790;28;20585;-78
2023/05/01 08:59:52;;;;;;;22.88;21.48;;;19.80;99.90;;;;;;5126968;28;20074;-78
2023/05/01 09:02:24;;;;;;;21.98;20.48;;;20.00;99.90;;;;;;5125870;29;20035;-79
2023/05/01 09:04:55;;;;;;;20.40;19.02;;;20.00;99.90;;;;;;5114057;29;20091;-75
2023/05/01 09:07:26;;;;;;;22.67;21.20;;;20.20;99.90;;;;;;5106986;29;20051;-76
2023/05/01 09:09:58;;;;;;;24.30;22.52;;;20.30;99.90;;;;;;5107041;29;20032;-78
2023/05/01 09:12:34;;;;;;;23.35;21.63;;;20.10;99.90;;;;;;5105070;29;20119;-78
2023/05/01 09:15:06;;;;;;;25.70;23.95;;;20.10;99.90;;;;;;5106974;29;20062;-78
2023/05/01 09:17:38;;;;;;;26.92;25.02;;;20.20;99.90;;;;;;5106416;29;20054;-75
2023/05/01 09:20:10;;;;;;;25.98;24.52;;;20.50;99.90;;;;;;5106570;29;20035;-76
2023/05/01 09:22:41;;;;;;;27.25;25.63;;;20.60;99.90;;;;;;5105116;29;20361;-78
2023/05/01 09:25:12;;;;;;;29.30;27.50;;;20.60;99.90;;;;;;5106595;29;20027;-78
2023/05/01 09:27:44;;;;;;;28.90;27.20;;;20.90;99.90;;;;;;5106573;29;20028;-78
2023/05/01 09:30:35;;;;;;;29.35;27.42;;;20.70;99.90;;;;;;5106471;29;20079;-79
2023/05/01 09:33:11;;;;;;;28.83;26.77;;;20.90;99.90;;;;;;5106453;29;20031;-78
2023/05/01 09:35:56;;;;;;;27.95;26.10;;;21.00;99.90;;;;;;5106375;29;20096;-78
2023/05/01 09:38:28;;;;;;;29.15;27.48;;;21.00;99.90;;;;;;5105885;29;20123;-77
2023/05/01 09:41:03;;;;;;;26.17;24.60;;;20.90;99.90;;;;;;5105064;29;20391;-79
2023/05/01 09:43:34;;;;;;;27.50;25.67;;;20.90;99.90;;;;;;5106324;29;20027;-78
2023/05/01 09:46:10;;;;;;;27.25;25.33;;;21.00;99.90;;;;;;5106202;29;20395;-78
2023/05/01 09:48:53;;;;;;;28.13;26.30;;;20.90;99.90;;;;;;5104948;29;20452;-74
2023/05/01 09:51:33;;;;;;;26.98;25.15;;;20.70;99.90;;;;;;5106190;29;20086;-78
2023/05/01 09:54:15;;;;;;;24.00;22.38;;;21.00;99.90;;;;;;5106221;29;20035;-78
2023/05/01 09:56:47;;;;;;;27.17;24.98;;;21.10;99.90;;;;;;5105763;29;20502;-76
2023/05/01 09:59:19;;;;;;;27.38;25.38;;;21.20;99.90;;;;;;5106069;29;20039;-77
2023/05/01 10:01:51;;;;;;;26.17;24.45;;;21.30;99.90;;;;;;5104806;29;20012;-76
2023/05/01 10:04:35;;;;;;;27.65;25.95;;;21.10;99.90;;;;;;5105900;29;20477;-77
2023/05/01 10:07:13;;;;;;;26.58;24.92;;;21.20;99.90;;;;;;5100483;29;20131;-78
2023/05/01 10:09:44;;;;;;;27.10;25.30;;;21.30;99.90;;;;;;5105419;29;20043;-75
2023/05/01 10:12:24;;;;;;;25.25;23.73;;;21.00;99.90;;;;;;5105630;29;20476;-75
2023/05/01 10:14:56;;;;;;;25.05;23.45;;;21.30;99.90;;;;;;5105829;29;20110;-76
2023/05/01 10:17:28;;;;;;;25.23;23.75;;;20.90;99.90;;;;;;5104025;29;20048;-76
2023/05/01 10:19:59;;;;;;;27.55;25.45;;;20.90;99.90;;;;;;5103824;29;20510;-75
2023/05/01 10:22:30;;;;;;;25.52;24.00;;;21.00;99.90;;;;;;5104032;29;20035;-75
2023/05/01 10:25:03;;;;;;;24.27;22.75;;;21.20;99.90;;;;;;5105632;29;20035;-74
2023/05/01 10:27:35;;;;;;;26.33;24.67;;;21.10;99.90;;;;;;5105631;29;20032;-75
2023/05/01 10:30:07;;;;;;;26.13;24.40;;;20.80;99.90;;;;;;5107360;29;20114;-75
2023/05/01 10:32:40;;;;;;;26.15;24.38;;;21.40;99.90;;;;;;5109743;29;20035;-75
2023/05/01 10:35:14;;;;;;;25.58;24.17;;;21.30;99.90;;;;;;5109385;29;20110;-76
2023/05/01 10:37:58;;;;;;;28.20;26.30;;;21.30;99.90;;;;;;5109254;29;20106;-76
2023/05/01 10:40:38;;;;;;;24.58;23.08;;;20.70;99.90;;;;;;5108936;29;20031;-76
2023/05/01 10:43:28;;;;;;;;;;;21.30;99.90;;;;;;5108765;29;20044;-76
2023/05/01 10:46:19;;;;;;;28.63;26.42;;;21.30;99.90;;;;;;5109550;29;19929;-76
2023/05/01 10:48:50;;;;;;;26.00;24.30;;;21.30;99.90;;;;;;5109374;29;20023;-76
2023/05/01 10:51:26;;;;;;;26.02;24.17;;;20.80;99.90;;;;;;5109243;29;20034;-75
2023/05/01 10:54:12;;;;;;;22.40;20.90;;;21.10;99.90;;;;;;5107908;29;20034;-75
2023/05/01 10:56:43;;;;;;;24.15;22.75;;;21.50;99.90;;;;;;5109138;29;20510;-76
2023/05/01 10:59:14;;;;;;;23.40;21.90;;;21.40;99.90;;;;;;5109024;29;20032;-75
2023/05/01 11:01:50;;;;;;;25.05;23.45;;;21.10;99.90;;;;;;5107878;29;20099;-74
2023/05/01 11:04:21;;;;;;;23.17;21.75;;;21.90;99.90;;;;;;5108945;29;20031;-76
2023/05/01 11:07:02;;;;;;;24.38;22.92;;;21.80;99.90;;;;;;5109068;29;20043;-75
2023/05/01 11:09:41;;;;;;;24.80;23.05;;;21.30;99.90;;;;;;5108535;29;20560;-75
2023/05/01 11:12:47;;;;;;;25.05;23.65;;;21.10;99.90;;;;;;5118829;29;20066;-76
2023/05/01 11:15:26;;;;;;;27.48;25.88;;;20.20;99.90;;;;;;5108551;29;20028;-72
2023/05/01 11:17:58;;;;;;;25.73;24.20;;;21.50;99.90;;;;;;5108471;29;20036;-75
2023/05/01 11:20:35;;;;;;;24.65;22.83;;;21.60;99.90;;;;;;5108586;29;20024;-73
2023/05/01 11:23:06;;;;;;;27.25;25.60;;;21.80;99.90;;;;;;5108490;29;20445;-73
2023/05/01 11:25:37;;;;;;;25.27;23.67;;;21.70;99.90;;;;;;5108369;29;20032;-71
2023/05/01 11:28:08;;;;;;;28.98;27.00;;;21.60;99.90;;;;;;5108407;29;20043;-73
2023/05/01 11:30:40;;;;;;;27.80;25.98;;;21.60;99.90;;;;;;5108317;29;20024;-73
2023/05/01 11:33:10;;;;;;;26.27;24.42;;;21.60;99.90;;;;;;5107104;29;20032;-72
2023/05/01 11:35:41;;;;;;;26.92;25.08;;;21.30;99.90;;;;;;5108311;29;20020;-69
2023/05/01 11:38:17;;;;;;;26.92;25.17;;;21.60;99.90;;;;;;5107904;29;20143;-69
2023/05/01 11:40:57;;;;;;;29.27;27.42;;;21.10;99.90;;;;;;5107961;29;20517;-70
2023/05/01 11:43:28;;;;;;;29.63;27.67;;;20.90;99.90;;;;;;5108425;29;20492;-72
2023/05/01 11:46:02;;;;;;;29.15;27.25;;;21.00;99.90;;;;;;5108574;29;20042;-71
2023/05/01 11:48:33;;;;;;;28.63;26.67;;;21.20;99.90;;;;;;5108181;29;20035;-70
2023/05/01 11:51:13;;;;;;;29.17;27.42;;;20.90;99.90;;;;;;5107697;29;20353;-69
2023/05/01 11:54:03;;;;;;;;;;;21.40;99.90;;;;;;5107944;29;20046;-71
2023/05/01 11:56:35;;;;;;;29.50;27.20;;;21.40;99.90;;;;;;5088537;29;19946;-69
2023/05/01 11:59:17;;;;;;;30.77;28.73;;;20.80;99.90;;;;;;5088071;29;20071;-68
2023/05/01 12:01:48;;;;;;;31.90;29.70;;;21.20;99.90;;;;;;5088222;29;20456;-67
2023/05/01 12:04:26;;;;;;;30.00;28.10;;;21.30;99.90;;;;;;5088353;29;20035;-68
2023/05/01 12:06:57;;;;;;;33.78;31.65;;;21.50;99.90;;;;;;5103572;29;20352;-68
2023/05/01 12:09:29;;;;;;;37.63;35.30;;;20.70;99.90;;;;;;5127578;28;20046;-70
2023/05/01 12:12:02;;;;;;;37.20;34.63;;;20.80;99.90;;;;;;5112453;28;20083;-69
2023/05/01 12:14:33;;;;;;;39.00;36.70;;;21.20;99.90;;;;;;5107262;29;20032;-73
2023/05/01 12:17:05;;;;;;;37.65;35.42;;;21.30;99.90;;;;;;5107431;29;20086;-73
2023/05/01 12:19:48;;;;;;;34.15;32.05;;;21.40;99.90;;;;;;5107324;29;20031;-72
2023/05/01 12:22:20;;;;;;;33.20;31.13;;;21.30;99.90;;;;;;5109756;29;20023;-72
2023/05/01 12:24:51;;;;;;;24.40;22.83;;;21.30;98.00;;;;;;5126709;28;20476;-70
2023/05/01 12:27:22;;;;;;;25.33;23.08;;;21.20;99.90;;;;;;5126878;29;20031;-72
2023/05/01 12:29:54;;;;;;;20.90;19.60;;;21.50;99.90;;;;;;5109067;29;20034;-71
2023/05/01 12:32:31;;;;;;;20.83;19.38;;;20.70;92.10;;;;;;5107293;29;20441;-70
2023/05/01 12:35:14;;;;;;;24.40;22.58;;;20.40;95.70;;;;;;5107164;29;20372;-73
2023/05/01 12:37:45;;;;;;;23.77;21.92;;;21.00;99.90;;;;;;5106805;29;20048;-69
2023/05/01 12:40:17;;;;;;;22.80;21.40;;;20.70;90.60;;;;;;5106969;29;20035;-72
2023/05/01 12:42:56;;;;;;;23.58;21.80;;;20.80;92.50;;;;;;5106729;29;20031;-71
2023/05/01 12:45:28;;;;;;;24.67;22.83;;;20.50;88.10;;;;;;5106862;29;20020;-71
2023/05/01 12:47:59;;;;;;;21.13;19.63;;;21.20;93.10;;;;;;5120402;29;20031;-69
2023/05/01 12:50:36;;;;;;;20.88;19.63;;;20.90;86.40;;;;;;5126796;28;20054;-70
2023/05/01 12:53:08;;;;;;;19.83;18.52;;;21.00;89.60;;;;;;5125023;28;20031;-69
2023/05/01 12:55:50;;;;;;;21.85;20.38;;;20.90;87.60;;;;;;5127109;28;20085;-69
2023/05/01 12:58:22;;;;;;;23.20;21.77;;;21.10;88.80;;;;;;5126574;28;20114;-70
2023/05/01 13:00:55;;;;;;;21.13;19.70;;;21.20;87.50;;;;;;5126725;28;20030;-70